Flight Track Log - Related Links

Times and Time Zones

All times are in EDT time to prevent confusion due to time zone crossing. See the SKW6306 flight status page for this flight to view local times or setup timezone preferences in your user account.

Time Position Orientation Groundspeed Altitude Reporting Facility
EDT Latitude Longitude Course Direction KTS MPH feet Rate Location/Type
Sat 02:16:54 PM 39.8808 -104.5897 346° North 189 217 6,700  Level Denver Center
Sat 02:17:56 PM 39.9014 -104.5097 71° East 226 260 9,200 1,887 Climbing Denver Center
Sat 02:18:58 PM 39.9658 -104.5183 354° North 249 287 10,600 1,548 Climbing Denver Center
Sat 02:19:00 PM 40.1604 -104.7698 347° North  Level FlightAware Approximate
Sat 02:20:00 PM 40.2648 -104.8011 347° North  Level FlightAware Approximate
Sat 02:20:00 PM 40.0464 -104.5494 344° North 281 323 12,400  Level Denver Center
Sat 02:21:00 PM 40.3688 -104.8340 346° North  Level FlightAware Approximate
Sat 02:21:02 PM 40.1244 -104.5808 343° North 294 338 14,100  Level Denver Center
Sat 02:22:00 PM 40.4725 -104.8686 346° North  Level FlightAware Approximate
Sat 02:22:04 PM 40.2069 -104.6144 343° North 284 327 16,300  Level Denver Center
Sat 02:23:07 PM 40.2900 -104.6472 343° North 317 365 16,700 576 Climbing Denver Center
Sat 02:24:09 PM 40.3864 -104.6878 342° North 339 390 17,500 677 Climbing Denver Center
Sat 02:25:11 PM 40.4808 -104.7256 343° North 353 406 18,100 726 Climbing Denver Center
Sat 02:26:13 PM 40.5825 -104.7694 342° North 357 411 19,000 823 Climbing Denver Center
Sat 02:27:15 PM 40.6786 -104.8072 343° North 362 417 19,800 726 Climbing Denver Center
Sat 02:28:17 PM 40.7647 -104.8472 341° North 351 404 20,500 774 Climbing Denver Center
Sat 02:29:19 PM 40.8792 -104.8975 342° North 358 412 21,400 726 Climbing Denver Center
Sat 02:30:21 PM 40.9753 -104.9450 340° North 365 420 22,000 581 Climbing Denver Center
Sat 02:31:23 PM 41.0669 -104.9917 339° North 371 427 22,600 629 Climbing Denver Center
Sat 02:32:25 PM 41.1764 -105.0442 340° North 374 430 23,300 581 Climbing Denver Center
Sat 02:33:27 PM 41.2711 -105.0892 340° North 376 433 23,800 532 Climbing Denver Center
Sat 02:34:29 PM 41.3831 -105.1475 339° North 383 441 24,400 532 Climbing Denver Center
Sat 02:35:31 PM 41.4803 -105.1944 340° North 387 445 24,900 484 Climbing Denver Center
Sat 02:36:33 PM 41.5953 -105.2431 342° North 388 447 25,400 484 Climbing Denver Center
Sat 02:37:35 PM 41.6981 -105.2622 352° North 387 445 25,900 528 Climbing Denver Center
Sat 02:38:38 PM 41.8183 -105.2842 352° North 390 449 26,500 528 Climbing Denver Center
Sat 02:39:40 PM 41.9222 -105.3033 352° North 391 450 27,000 484 Climbing Denver Center
Sat 02:40:42 PM 42.0267 -105.3242 352° North 394 453 27,500 484 Climbing Denver Center
Sat 02:41:44 PM 42.1481 -105.3461 352° North 391 450 28,000 484 Climbing Denver Center
Sat 02:42:46 PM 42.2508 -105.3661 352° North 389 448 28,500 532 Climbing Denver Center
Sat 02:43:48 PM 42.3708 -105.3886 352° North 387 445 29,100 532 Climbing Denver Center
Sat 02:44:50 PM 42.4728 -105.4078 352° North 384 442 29,600 484 Climbing Denver Center
Sat 02:45:52 PM 42.5906 -105.4322 351° North 381 438 30,100 484 Climbing Denver Center
Sat 02:46:54 PM 42.6928 -105.4517 352° North 385 443 30,600 532 Climbing Denver Center
Sat 02:47:56 PM 42.8092 -105.4728 352° North 379 436 31,200 532 Climbing Denver Center
Sat 02:48:58 PM 42.9097 -105.4925 352° North 380 437 31,700 387 Climbing Denver Center
Sat 02:50:00 PM 43.0242 -105.5133 352° North 372 428 32,000 145 Climbing Denver Center
Sat 02:51:02 PM 43.1250 -105.5336 352° North 379 436 32,000  Level Denver Center
Sat 02:52:04 PM 43.2283 -105.5542 352° North 388 447 32,000  Level Denver Center
Sat 02:53:06 PM 43.3508 -105.5781 352° North 395 455 32,000  Level Denver Center
Sat 02:54:08 PM 43.4564 -105.5997 352° North 399 459 32,000  Level Denver Center
Sat 02:55:10 PM 43.5817 -105.6231 352° North 403 464 32,000  Level Denver Center
Sat 02:56:12 PM 43.6900 -105.6447 352° North 406 467 32,000  Level Denver Center
Sat 02:57:14 PM 43.8158 -105.6692 352° North 409 471 32,000  Level Denver Center
Sat 02:58:16 PM 43.9231 -105.6908 352° North 408 470 32,000  Level Denver Center
Sat 02:59:30 PM 44.0672 -105.7192 352° North 408 470 32,000  Level Denver Center
Sat 03:00:32 PM 44.1756 -105.7414 352° North 409 471 32,000  Level Denver Center
Sat 03:01:34 PM 44.3008 -105.7678 351° North 409 471 32,000  Level Denver Center
Sat 03:02:36 PM 44.4086 -105.7889 352° North 408 470 32,000  Level Denver Center
Sat 03:03:15 PM 44.4808 -105.8050 351° North 408 470 32,000  Level Salt Lake Center
Sat 03:04:17 PM 44.6064 -105.8317 351° North 409 471 32,000  Level Salt Lake Center
Sat 03:05:19 PM 44.7144 -105.8544 351° North 409 471 32,000  Level Salt Lake Center
Sat 03:06:21 PM 44.8417 -105.8789 352° North 412 474 32,000  Level Salt Lake Center
Sat 03:07:23 PM 44.9497 -105.9008 352° North 411 473 32,000  Level Salt Lake Center
Sat 03:08:25 PM 45.0744 -105.9294 351° North 408 470 32,000  Level Salt Lake Center
Sat 03:09:27 PM 45.1819 -105.9511 352° North 407 468 32,000  Level Salt Lake Center
Sat 03:10:29 PM 45.2892 -105.9736 352° North 408 470 32,000  Level Salt Lake Center
Sat 03:11:31 PM 45.4014 -105.9989 351° North 408 470 32,000  Level Salt Lake Center
Sat 03:12:33 PM 45.5350 -106.0269 352° North 406 467 32,000  Level Salt Lake Center
Sat 03:13:34 PM 45.6472 -106.0497 352° North 407 468 32,000  Level Salt Lake Center
Sat 03:14:36 PM 45.7592 -106.0731 352° North 406 467 32,000  Level Salt Lake Center
Sat 03:15:38 PM 45.8700 -106.0956 352° North 405 466 32,000  Level Salt Lake Center
Sat 03:16:40 PM 45.9806 -106.1183 352° North 404 465 32,000  Level Salt Lake Center
Sat 03:17:42 PM 46.0908 -106.1414 352° North 402 463 32,000  Level Salt Lake Center
Sat 03:18:44 PM 46.2017 -106.1658 351° North 402 463 32,000  Level Salt Lake Center
Sat 03:19:46 PM 46.3358 -106.1956 351° North 404 465 32,000  Level Salt Lake Center
Sat 03:20:48 PM 46.4483 -106.2203 351° North 405 466 32,000  Level Salt Lake Center
Sat 03:21:50 PM 46.5608 -106.2444 352° North 407 468 32,000  Level Salt Lake Center
Sat 03:22:52 PM 46.6728 -106.2703 351° North 408 470 32,000  Level Salt Lake Center
Sat 03:23:53 PM 46.7844 -106.2953 351° North 407 468 32,000  Level Salt Lake Center
Sat 03:24:55 PM 46.8981 -106.3208 351° North 408 470 32,000  Level Salt Lake Center
Sat 03:25:57 PM 47.0114 -106.3469 351° North 410 472 32,000  Level Salt Lake Center
Sat 03:26:59 PM 47.1456 -106.3778 351° North 409 471 32,000  Level Salt Lake Center
Sat 03:28:01 PM 47.2583 -106.4033 351° North 409 471 32,000  Level Salt Lake Center
Sat 03:29:02 PM 47.3717 -106.4286 351° North 410 472 32,000  Level Salt Lake Center
Sat 03:30:04 PM 47.4856 -106.4547 351° North 413 475 32,000  Level Salt Lake Center
Sat 03:31:40 PM 47.6667 -106.5167 347° North 420 483 32,000  Level Winnipeg Center
Sat 03:32:40 PM 47.7667 -106.5500 347° North 410 472 32,000  Level Winnipeg Center
Sat 03:33:40 PM 47.8833 -106.5667 355° North 410 472 32,000  Level Winnipeg Center
Sat 03:34:11 PM 47.9581 -106.5656 North 410 472 32,000  Level Salt Lake Center
Sat 03:35:13 PM 48.0725 -106.5908 352° North 412 474 32,000  Level Salt Lake Center
Sat 03:36:15 PM 48.1847 -106.6183 351° North 411 473 32,000  Level Salt Lake Center
Sat 03:37:17 PM 48.2933 -106.6644 344° North 409 471 32,000  Level Salt Lake Center
Sat 03:38:18 PM 48.4014 -106.7169 342° North 409 471 32,000  Level Salt Lake Center
Sat 03:39:20 PM 48.5081 -106.7686 342° North 405 466 32,000  Level Salt Lake Center
Sat 03:40:22 PM 48.6139 -106.8222 341° North 404 465 32,000  Level Salt Lake Center
Sat 03:41:24 PM 48.7425 -106.8844 342° North 404 465 32,000  Level Salt Lake Center
Sat 03:42:26 PM 48.8475 -106.9392 341° North 402 463 32,000  Level Salt Lake Center
Sat 03:43:27 PM 48.9544 -106.9925 342° North 403 464 32,000  Level Salt Lake Center
Sat 03:44:29 PM 49.0603 -107.0461 342° North 403 464 32,000  Level Salt Lake Center
Sat 03:45:40 PM 49.1667 -107.1500 327° Northwest 410 472 32,000  Level Winnipeg Center
Sat 03:46:40 PM 49.2833 -107.2000 344° North 410 472 32,000  Level Winnipeg Center
Sat 03:47:40 PM 49.3833 -107.2333 348° North 410 472 32,000  Level Winnipeg Center
Sat 03:48:40 PM 49.4833 -107.3167 332° Northwest 410 472 32,000  Level Winnipeg Center
Sat 03:49:40 PM 49.6000 -107.3667 344° North 410 472 32,000  Level Winnipeg Center
Sat 03:50:40 PM 49.7167 -107.4167 345° North 410 472 32,000  Level Winnipeg Center
Sat 03:51:40 PM 49.8167 -107.4667 342° North 410 472 32,000  Level Winnipeg Center
Sat 03:52:40 PM 49.9333 -107.5500 335° Northwest 410 472 32,000  Level Winnipeg Center
Sat 03:53:40 PM 50.0333 -107.6000 342° North 410 472 32,000  Level Winnipeg Center
Sat 03:54:40 PM 50.1500 -107.6500 345° North 410 472 32,000  Level Winnipeg Center
Sat 03:55:40 PM 50.2667 -107.7000 345° North 420 483 32,000  Level Winnipeg Center
Sat 03:56:40 PM 50.3667 -107.7000 360° North 420 483 32,000  Level Winnipeg Center
Sat 03:57:40 PM 50.5000 -107.7000 360° North 430 495 32,000  Level Winnipeg Center
Sat 03:58:40 PM 50.6167 -107.7000 360° North 430 495 32,000  Level Winnipeg Center
Sat 03:59:40 PM 50.7333 -107.6833 North 430 495 32,000  Level Winnipeg Center
Sat 04:00:40 PM 50.8500 -107.6833 360° North 430 495 32,000  Level Winnipeg Center
Sat 04:01:40 PM 50.9833 -107.6500 North 430 495 32,000  Level Winnipeg Center
Sat 04:02:40 PM 51.1000 -107.6333 North 440 506 32,000 -1,200 Level Winnipeg Center
Sat 04:03:40 PM 51.2167 -107.6333 360° North 450 518 29,600 -2,900 Descending Winnipeg Center
Sat 04:04:40 PM 51.3333 -107.5667 20° North 460 529 26,200 -3,300 Descending Winnipeg Center
Sat 04:05:40 PM 51.4500 -107.5000 20° North 440 506 23,000 -3,250 Descending Winnipeg Center
Sat 04:06:40 PM 51.5500 -107.4333 23° Northeast 410 472 19,700 -3,050 Descending Winnipeg Center
Sat 04:07:40 PM 51.6667 -107.3500 24° Northeast 390 449 16,900 -2,850 Descending Winnipeg Center
Sat 04:08:40 PM 51.7500 -107.2833 26° Northeast 370 426 14,000 -2,600 Descending Winnipeg Center
Sat 04:09:40 PM 51.8333 -107.2333 20° North 340 391 11,700 -1,900 Descending Winnipeg Center
Sat 04:10:40 PM 51.9167 -107.1667 26° Northeast 300 345 10,200 -1,750 Descending Winnipeg Center
Sat 04:11:40 PM 51.9833 -107.1333 17° North 280 322 8,200 -1,950 Descending Winnipeg Center
Sat 04:12:40 PM 52.0333 -107.0833 32° Northeast 260 299 6,300 -1,850 Descending Winnipeg Center
Sat 04:13:40 PM 52.1167 -107.0167 26° Northeast 260 299 4,500 -1,800 Descending Winnipeg Center

Login

Don't have an account? Register now (free) for customized features, flight alerts, and more!